sensor_id;sensor_type;location;lat;lon;timestamp;P1;durP1;ratioP1;P2;durP2;ratioP2
37877;SDS011;23715;53.652;8.516;2022-08-21T00:09:06;10.73;;;9.73;;
37877;SDS011;23715;53.652;8.516;2022-08-21T00:14:10;12.20;;;10.95;;
37877;SDS011;23715;53.652;8.516;2022-08-21T00:19:11;10.90;;;9.80;;
37877;SDS011;23715;53.652;8.516;2022-08-21T00:24:12;12.20;;;11.10;;
37877;SDS011;23715;53.652;8.516;2022-08-21T00:29:13;12.73;;;11.33;;
37877;SDS011;23715;53.652;8.516;2022-08-21T00:34:14;12.35;;;11.00;;
37877;SDS011;23715;53.652;8.516;2022-08-21T00:44:14;13.05;;;11.30;;
37877;SDS011;23715;53.652;8.516;2022-08-21T00:49:15;12.03;;;11.00;;
37877;SDS011;23715;53.652;8.516;2022-08-21T00:54:16;13.72;;;11.60;;
37877;SDS011;23715;53.652;8.516;2022-08-21T00:59:19;13.53;;;12.13;;
37877;SDS011;23715;53.652;8.516;2022-08-21T01:04:20;12.93;;;11.63;;
37877;SDS011;23715;53.652;8.516;2022-08-21T01:09:23;12.10;;;11.18;;
37877;SDS011;23715;53.652;8.516;2022-08-21T01:14:24;11.85;;;10.72;;
37877;SDS011;23715;53.652;8.516;2022-08-21T01:24:25;12.70;;;11.37;;
37877;SDS011;23715;53.652;8.516;2022-08-21T01:34:36;13.83;;;12.60;;
37877;SDS011;23715;53.652;8.516;2022-08-21T01:39:38;13.93;;;12.18;;
37877;SDS011;23715;53.652;8.516;2022-08-21T01:44:40;12.98;;;11.90;;
37877;SDS011;23715;53.652;8.516;2022-08-21T01:49:41;13.00;;;11.80;;
37877;SDS011;23715;53.652;8.516;2022-08-21T01:54:42;13.38;;;12.20;;
37877;SDS011;23715;53.652;8.516;2022-08-21T01:59:43;12.58;;;11.48;;
37877;SDS011;23715;53.652;8.516;2022-08-21T02:04:44;12.60;;;11.60;;
37877;SDS011;23715;53.652;8.516;2022-08-21T02:14:44;12.70;;;11.70;;
37877;SDS011;23715;53.652;8.516;2022-08-21T02:19:44;13.43;;;12.33;;
37877;SDS011;23715;53.652;8.516;2022-08-21T02:29:44;13.15;;;12.13;;
37877;SDS011;23715;53.652;8.516;2022-08-21T02:34:46;12.40;;;11.30;;
37877;SDS011;23715;53.652;8.516;2022-08-21T02:39:47;12.43;;;11.15;;
37877;SDS011;23715;53.652;8.516;2022-08-21T02:44:47;13.03;;;11.93;;
37877;SDS011;23715;53.652;8.516;2022-08-21T02:54:48;13.72;;;12.45;;
37877;SDS011;23715;53.652;8.516;2022-08-21T02:59:48;14.98;;;13.53;;
37877;SDS011;23715;53.652;8.516;2022-08-21T03:04:49;13.70;;;12.30;;
37877;SDS011;23715;53.652;8.516;2022-08-21T03:09:49;12.78;;;11.57;;
37877;SDS011;23715;53.652;8.516;2022-08-21T03:14:50;13.93;;;12.93;;
37877;SDS011;23715;53.652;8.516;2022-08-21T03:24:50;13.08;;;11.88;;
37877;SDS011;23715;53.652;8.516;2022-08-21T03:29:50;13.13;;;11.75;;
37877;SDS011;23715;53.652;8.516;2022-08-21T03:34:50;12.70;;;11.90;;
37877;SDS011;23715;53.652;8.516;2022-08-21T03:44:51;14.65;;;13.35;;
37877;SDS011;23715;53.652;8.516;2022-08-21T03:49:52;14.87;;;13.50;;
37877;SDS011;23715;53.652;8.516;2022-08-21T03:59:52;15.18;;;11.63;;
37877;SDS011;23715;53.652;8.516;2022-08-21T04:04:52;13.17;;;12.10;;
37877;SDS011;23715;53.652;8.516;2022-08-21T04:09:53;13.62;;;12.53;;
37877;SDS011;23715;53.652;8.516;2022-08-21T04:14:53;12.80;;;11.80;;
37877;SDS011;23715;53.652;8.516;2022-08-21T04:19:54;13.90;;;12.75;;
37877;SDS011;23715;53.652;8.516;2022-08-21T04:24:55;14.03;;;13.03;;
37877;SDS011;23715;53.652;8.516;2022-08-21T04:29:55;14.93;;;13.50;;
37877;SDS011;23715;53.652;8.516;2022-08-21T04:35:00;15.60;;;14.03;;
37877;SDS011;23715;53.652;8.516;2022-08-21T04:40:02;17.32;;;15.58;;
37877;SDS011;23715;53.652;8.516;2022-08-21T04:45:05;18.85;;;15.93;;
37877;SDS011;23715;53.652;8.516;2022-08-21T04:55:06;17.97;;;16.70;;
37877;SDS011;23715;53.652;8.516;2022-08-21T05:05:07;19.67;;;18.00;;
37877;SDS011;23715;53.652;8.516;2022-08-21T05:15:10;22.35;;;20.65;;
37877;SDS011;23715;53.652;8.516;2022-08-21T05:20:12;22.20;;;20.30;;
37877;SDS011;23715;53.652;8.516;2022-08-21T05:25:13;22.30;;;20.60;;
37877;SDS011;23715;53.652;8.516;2022-08-21T05:30:14;23.18;;;21.00;;
37877;SDS011;23715;53.652;8.516;2022-08-21T05:40:14;23.00;;;20.77;;
37877;SDS011;23715;53.652;8.516;2022-08-21T05:45:15;23.50;;;21.23;;
37877;SDS011;23715;53.652;8.516;2022-08-21T05:50:15;23.30;;;21.40;;
37877;SDS011;23715;53.652;8.516;2022-08-21T05:55:16;23.98;;;22.32;;
37877;SDS011;23715;53.652;8.516;2022-08-21T06:00:16;24.18;;;22.30;;
37877;SDS011;23715;53.652;8.516;2022-08-21T06:05:17;24.23;;;22.30;;
37877;SDS011;23715;53.652;8.516;2022-08-21T06:15:17;25.97;;;23.73;;
37877;SDS011;23715;53.652;8.516;2022-08-21T06:20:18;25.95;;;23.67;;
37877;SDS011;23715;53.652;8.516;2022-08-21T06:25:18;26.65;;;24.43;;
37877;SDS011;23715;53.652;8.516;2022-08-21T06:30:19;25.80;;;23.65;;
37877;SDS011;23715;53.652;8.516;2022-08-21T06:35:20;26.10;;;24.10;;
37877;SDS011;23715;53.652;8.516;2022-08-21T06:45:20;24.92;;;22.93;;
37877;SDS011;23715;53.652;8.516;2022-08-21T06:50:21;27.22;;;24.87;;
37877;SDS011;23715;53.652;8.516;2022-08-21T06:55:21;24.87;;;22.80;;
37877;SDS011;23715;53.652;8.516;2022-08-21T07:00:22;24.00;;;22.00;;
37877;SDS011;23715;53.652;8.516;2022-08-21T07:05:24;22.90;;;20.97;;
37877;SDS011;23715;53.652;8.516;2022-08-21T07:10:26;21.75;;;20.15;;
37877;SDS011;23715;53.652;8.516;2022-08-21T07:15:28;23.62;;;21.33;;
37877;SDS011;23715;53.652;8.516;2022-08-21T07:20:29;24.85;;;22.48;;
37877;SDS011;23715;53.652;8.516;2022-08-21T07:25:31;22.17;;;20.27;;
37877;SDS011;23715;53.652;8.516;2022-08-21T07:30:31;21.77;;;20.32;;
37877;SDS011;23715;53.652;8.516;2022-08-21T07:35:32;22.48;;;20.40;;
37877;SDS011;23715;53.652;8.516;2022-08-21T07:40:32;25.55;;;21.05;;
37877;SDS011;23715;53.652;8.516;2022-08-21T07:45:33;21.63;;;19.87;;
37877;SDS011;23715;53.652;8.516;2022-08-21T07:50:33;21.42;;;19.55;;
37877;SDS011;23715;53.652;8.516;2022-08-21T07:55:34;18.85;;;17.55;;
37877;SDS011;23715;53.652;8.516;2022-08-21T08:00:35;20.00;;;18.50;;
37877;SDS011;23715;53.652;8.516;2022-08-21T08:05:35;20.10;;;18.52;;
37877;SDS011;23715;53.652;8.516;2022-08-21T08:10:37;19.40;;;18.00;;
37877;SDS011;23715;53.652;8.516;2022-08-21T08:15:38;19.00;;;17.75;;
37877;SDS011;23715;53.652;8.516;2022-08-21T08:20:39;20.40;;;18.82;;
37877;SDS011;23715;53.652;8.516;2022-08-21T08:25:39;20.97;;;19.17;;
37877;SDS011;23715;53.652;8.516;2022-08-21T08:30:40;20.52;;;18.62;;
37877;SDS011;23715;53.652;8.516;2022-08-21T08:35:41;20.43;;;18.67;;
37877;SDS011;23715;53.652;8.516;2022-08-21T08:40:46;21.34;;;19.64;;
37877;SDS011;23715;53.652;8.516;2022-08-21T08:45:51;20.72;;;18.98;;
37877;SDS011;23715;53.652;8.516;2022-08-21T08:50:59;22.07;;;19.92;;
37877;SDS011;23715;53.652;8.516;2022-08-21T08:55:56;21.00;;;19.30;;
37877;SDS011;23715;53.652;8.516;2022-08-21T09:00:59;23.32;;;21.27;;
37877;SDS011;23715;53.652;8.516;2022-08-21T09:06:06;21.42;;;19.50;;
37877;SDS011;23715;53.652;8.516;2022-08-21T09:11:15;21.20;;;19.20;;
37877;SDS011;23715;53.652;8.516;2022-08-21T09:21:53;20.43;;;18.70;;
37877;SDS011;23715;53.652;8.516;2022-08-21T09:26:53;22.77;;;20.45;;
37877;SDS011;23715;53.652;8.516;2022-08-21T09:31:53;18.35;;;16.62;;
37877;SDS011;23715;53.652;8.516;2022-08-21T09:36:54;18.48;;;17.00;;
37877;SDS011;23715;53.652;8.516;2022-08-21T09:41:58;17.57;;;16.23;;
37877;SDS011;23715;53.652;8.516;2022-08-21T09:47:02;18.87;;;17.32;;
37877;SDS011;23715;53.652;8.516;2022-08-21T09:52:03;15.70;;;14.40;;
37877;SDS011;23715;53.652;8.516;2022-08-21T09:57:13;16.05;;;14.55;;
37877;SDS011;23715;53.652;8.516;2022-08-21T10:02:28;13.48;;;12.07;;
37877;SDS011;23715;53.652;8.516;2022-08-21T10:07:31;14.70;;;13.40;;
37877;SDS011;23715;53.652;8.516;2022-08-21T10:12:58;13.35;;;11.97;;
37877;SDS011;23715;53.652;8.516;2022-08-21T10:17:47;12.18;;;11.08;;
37877;SDS011;23715;53.652;8.516;2022-08-21T10:33:12;12.98;;;11.35;;
37877;SDS011;23715;53.652;8.516;2022-08-21T10:43:49;13.62;;;10.45;;
37877;SDS011;23715;53.652;8.516;2022-08-21T10:49:38;11.03;;;9.50;;
37877;SDS011;23715;53.652;8.516;2022-08-21T11:04:38;13.72;;;9.58;;
37877;SDS011;23715;53.652;8.516;2022-08-21T11:09:37;10.53;;;9.70;;
37877;SDS011;23715;53.652;8.516;2022-08-21T11:30:39;10.23;;;9.25;;
37877;SDS011;23715;53.652;8.516;2022-08-21T11:46:17;11.63;;;10.48;;
37877;SDS011;23715;53.652;8.516;2022-08-21T11:51:20;10.50;;;9.80;;
37877;SDS011;23715;53.652;8.516;2022-08-21T11:56:59;10.58;;;9.68;;
37877;SDS011;23715;53.652;8.516;2022-08-21T12:01:41;11.12;;;10.23;;
37877;SDS011;23715;53.652;8.516;2022-08-21T12:06:40;13.35;;;10.98;;
37877;SDS011;23715;53.652;8.516;2022-08-21T12:11:48;12.00;;;10.85;;
37877;SDS011;23715;53.652;8.516;2022-08-21T12:16:50;12.90;;;11.63;;
37877;SDS011;23715;53.652;8.516;2022-08-21T12:21:52;13.75;;;12.55;;
37877;SDS011;23715;53.652;8.516;2022-08-21T12:26:56;11.65;;;10.65;;
37877;SDS011;23715;53.652;8.516;2022-08-21T12:31:59;12.55;;;11.68;;
37877;SDS011;23715;53.652;8.516;2022-08-21T12:37:05;12.35;;;11.45;;
37877;SDS011;23715;53.652;8.516;2022-08-21T12:42:16;11.50;;;10.58;;
37877;SDS011;23715;53.652;8.516;2022-08-21T12:47:27;12.28;;;11.48;;
37877;SDS011;23715;53.652;8.516;2022-08-21T12:52:35;13.10;;;11.97;;
37877;SDS011;23715;53.652;8.516;2022-08-21T12:57:35;12.20;;;11.20;;
37877;SDS011;23715;53.652;8.516;2022-08-21T13:02:38;12.85;;;11.73;;
37877;SDS011;23715;53.652;8.516;2022-08-21T13:07:44;11.30;;;10.40;;
37877;SDS011;23715;53.652;8.516;2022-08-21T13:12:44;12.07;;;11.12;;
37877;SDS011;23715;53.652;8.516;2022-08-21T13:17:47;11.60;;;10.90;;
37877;SDS011;23715;53.652;8.516;2022-08-21T13:22:49;13.32;;;12.33;;
37877;SDS011;23715;53.652;8.516;2022-08-21T13:28:06;13.22;;;11.95;;
37877;SDS011;23715;53.652;8.516;2022-08-21T13:33:10;13.03;;;12.13;;
37877;SDS011;23715;53.652;8.516;2022-08-21T13:38:14;11.28;;;10.28;;
37877;SDS011;23715;53.652;8.516;2022-08-21T13:43:21;11.25;;;10.38;;
37877;SDS011;23715;53.652;8.516;2022-08-21T13:48:24;10.93;;;9.85;;
37877;SDS011;23715;53.652;8.516;2022-08-21T13:53:28;11.03;;;10.23;;
37877;SDS011;23715;53.652;8.516;2022-08-21T13:58:41;12.90;;;11.05;;
37877;SDS011;23715;53.652;8.516;2022-08-21T14:03:35;13.43;;;8.83;;
37877;SDS011;23715;53.652;8.516;2022-08-21T14:08:40;14.68;;;8.75;;
37877;SDS011;23715;53.652;8.516;2022-08-21T14:13:45;11.53;;;9.27;;
37877;SDS011;23715;53.652;8.516;2022-08-21T14:19:07;13.08;;;10.88;;
37877;SDS011;23715;53.652;8.516;2022-08-21T14:29:07;11.60;;;9.60;;
37877;SDS011;23715;53.652;8.516;2022-08-21T14:34:11;12.18;;;9.48;;
37877;SDS011;23715;53.652;8.516;2022-08-21T14:39:13;17.12;;;10.03;;
37877;SDS011;23715;53.652;8.516;2022-08-21T14:44:16;14.07;;;11.05;;
37877;SDS011;23715;53.652;8.516;2022-08-21T14:49:17;17.55;;;10.78;;
37877;SDS011;23715;53.652;8.516;2022-08-21T14:59:17;12.80;;;10.93;;
37877;SDS011;23715;53.652;8.516;2022-08-21T15:04:18;17.35;;;11.22;;
37877;SDS011;23715;53.652;8.516;2022-08-21T15:09:18;16.07;;;11.55;;
37877;SDS011;23715;53.652;8.516;2022-08-21T15:14:20;15.25;;;13.35;;
37877;SDS011;23715;53.652;8.516;2022-08-21T15:19:22;19.05;;;12.43;;
37877;SDS011;23715;53.652;8.516;2022-08-21T15:24:23;14.18;;;10.82;;
37877;SDS011;23715;53.652;8.516;2022-08-21T15:29:24;15.72;;;9.70;;
37877;SDS011;23715;53.652;8.516;2022-08-21T15:34:26;17.57;;;8.98;;
37877;SDS011;23715;53.652;8.516;2022-08-21T15:39:29;12.43;;;9.13;;
37877;SDS011;23715;53.652;8.516;2022-08-21T15:44:30;16.42;;;9.58;;
37877;SDS011;23715;53.652;8.516;2022-08-21T15:49:31;10.72;;;9.05;;
37877;SDS011;23715;53.652;8.516;2022-08-21T15:54:31;14.07;;;8.93;;
37877;SDS011;23715;53.652;8.516;2022-08-21T16:09:32;15.35;;;9.70;;
37877;SDS011;23715;53.652;8.516;2022-08-21T16:14:33;10.50;;;8.53;;
37877;SDS011;23715;53.652;8.516;2022-08-21T16:19:35;12.00;;;9.30;;
37877;SDS011;23715;53.652;8.516;2022-08-21T16:24:37;12.98;;;7.30;;
37877;SDS011;23715;53.652;8.516;2022-08-21T16:29:38;11.73;;;7.72;;
37877;SDS011;23715;53.652;8.516;2022-08-21T16:34:39;12.78;;;7.70;;
37877;SDS011;23715;53.652;8.516;2022-08-21T16:39:42;14.83;;;8.68;;
37877;SDS011;23715;53.652;8.516;2022-08-21T16:44:43;11.80;;;9.50;;
37877;SDS011;23715;53.652;8.516;2022-08-21T16:49:43;11.50;;;9.43;;
37877;SDS011;23715;53.652;8.516;2022-08-21T16:54:44;12.05;;;8.95;;
37877;SDS011;23715;53.652;8.516;2022-08-21T16:59:44;13.90;;;10.82;;
37877;SDS011;23715;53.652;8.516;2022-08-21T17:04:45;15.77;;;7.77;;
37877;SDS011;23715;53.652;8.516;2022-08-21T17:14:46;12.58;;;7.22;;
37877;SDS011;23715;53.652;8.516;2022-08-21T17:19:47;11.38;;;7.25;;
37877;SDS011;23715;53.652;8.516;2022-08-21T17:24:47;11.25;;;6.37;;
37877;SDS011;23715;53.652;8.516;2022-08-21T17:29:48;11.73;;;6.40;;
37877;SDS011;23715;53.652;8.516;2022-08-21T17:34:50;7.62;;;6.78;;
37877;SDS011;23715;53.652;8.516;2022-08-21T17:39:51;10.85;;;6.78;;
37877;SDS011;23715;53.652;8.516;2022-08-21T17:44:52;7.97;;;7.20;;
37877;SDS011;23715;53.652;8.516;2022-08-21T17:49:54;8.83;;;6.03;;
37877;SDS011;23715;53.652;8.516;2022-08-21T17:54:54;11.83;;;6.90;;
37877;SDS011;23715;53.652;8.516;2022-08-21T17:59:55;16.27;;;7.20;;
37877;SDS011;23715;53.652;8.516;2022-08-21T18:04:56;9.25;;;6.15;;
37877;SDS011;23715;53.652;8.516;2022-08-21T18:09:56;9.38;;;7.62;;
37877;SDS011;23715;53.652;8.516;2022-08-21T18:14:57;11.75;;;8.25;;
37877;SDS011;23715;53.652;8.516;2022-08-21T18:19:59;12.60;;;7.73;;
37877;SDS011;23715;53.652;8.516;2022-08-21T18:25:03;15.20;;;7.87;;
37877;SDS011;23715;53.652;8.516;2022-08-21T18:30:04;10.43;;;6.90;;
37877;SDS011;23715;53.652;8.516;2022-08-21T18:35:05;14.93;;;6.72;;
37877;SDS011;23715;53.652;8.516;2022-08-21T18:40:07;15.18;;;7.30;;
37877;SDS011;23715;53.652;8.516;2022-08-21T18:45:09;14.57;;;8.33;;
37877;SDS011;23715;53.652;8.516;2022-08-21T18:50:12;12.37;;;6.95;;
37877;SDS011;23715;53.652;8.516;2022-08-21T18:55:14;12.70;;;6.58;;
37877;SDS011;23715;53.652;8.516;2022-08-21T19:00:18;10.78;;;6.20;;
37877;SDS011;23715;53.652;8.516;2022-08-21T19:05:21;13.25;;;6.60;;
37877;SDS011;23715;53.652;8.516;2022-08-21T19:10:22;10.03;;;6.60;;
37877;SDS011;23715;53.652;8.516;2022-08-21T19:15:25;12.40;;;6.35;;
37877;SDS011;23715;53.652;8.516;2022-08-21T19:20:28;11.73;;;6.15;;
37877;SDS011;23715;53.652;8.516;2022-08-21T19:25:32;10.95;;;6.40;;
37877;SDS011;23715;53.652;8.516;2022-08-21T19:30:33;11.07;;;6.50;;
37877;SDS011;23715;53.652;8.516;2022-08-21T19:35:37;14.40;;;7.28;;
37877;SDS011;23715;53.652;8.516;2022-08-21T19:40:37;16.85;;;8.35;;
37877;SDS011;23715;53.652;8.516;2022-08-21T19:45:39;14.68;;;9.58;;
37877;SDS011;23715;53.652;8.516;2022-08-21T19:50:40;11.88;;;8.88;;
37877;SDS011;23715;53.652;8.516;2022-08-21T19:55:41;13.18;;;8.78;;
37877;SDS011;23715;53.652;8.516;2022-08-21T20:00:42;13.00;;;9.75;;
37877;SDS011;23715;53.652;8.516;2022-08-21T20:05:43;15.45;;;11.90;;
37877;SDS011;23715;53.652;8.516;2022-08-21T20:10:43;11.43;;;10.20;;
37877;SDS011;23715;53.652;8.516;2022-08-21T20:15:44;13.65;;;11.15;;
37877;SDS011;23715;53.652;8.516;2022-08-21T20:20:45;14.13;;;12.78;;
37877;SDS011;23715;53.652;8.516;2022-08-21T20:25:46;15.43;;;13.93;;
37877;SDS011;23715;53.652;8.516;2022-08-21T20:30:47;16.87;;;12.78;;
37877;SDS011;23715;53.652;8.516;2022-08-21T20:35:47;13.98;;;12.33;;
37877;SDS011;23715;53.652;8.516;2022-08-21T20:40:50;16.60;;;11.33;;
37877;SDS011;23715;53.652;8.516;2022-08-21T20:45:52;14.80;;;11.08;;
37877;SDS011;23715;53.652;8.516;2022-08-21T20:50:56;12.63;;;11.43;;
37877;SDS011;23715;53.652;8.516;2022-08-21T20:56:08;16.40;;;12.50;;
37877;SDS011;23715;53.652;8.516;2022-08-21T21:01:10;13.55;;;12.03;;
37877;SDS011;23715;53.652;8.516;2022-08-21T21:06:20;15.43;;;12.15;;
37877;SDS011;23715;53.652;8.516;2022-08-21T21:11:18;16.40;;;12.37;;
37877;SDS011;23715;53.652;8.516;2022-08-21T21:16:25;16.20;;;12.88;;
37877;SDS011;23715;53.652;8.516;2022-08-21T21:21:31;16.87;;;12.60;;
37877;SDS011;23715;53.652;8.516;2022-08-21T21:26:40;14.73;;;12.28;;
37877;SDS011;23715;53.652;8.516;2022-08-21T21:31:36;14.53;;;12.20;;
37877;SDS011;23715;53.652;8.516;2022-08-21T21:36:48;13.80;;;12.40;;
37877;SDS011;23715;53.652;8.516;2022-08-21T22:03:14;12.70;;;11.40;;
37877;SDS011;23715;53.652;8.516;2022-08-21T22:08:18;12.88;;;10.50;;
37877;SDS011;23715;53.652;8.516;2022-08-21T22:13:49;15.70;;;11.00;;
37877;SDS011;23715;53.652;8.516;2022-08-21T22:19:01;15.40;;;10.88;;
37877;SDS011;23715;53.652;8.516;2022-08-21T22:24:20;14.40;;;12.07;;
37877;SDS011;23715;53.652;8.516;2022-08-21T22:29:24;19.98;;;12.33;;
37877;SDS011;23715;53.652;8.516;2022-08-21T22:34:26;14.53;;;12.65;;
37877;SDS011;23715;53.652;8.516;2022-08-21T22:39:30;14.78;;;12.07;;
37877;SDS011;23715;53.652;8.516;2022-08-21T22:44:33;17.77;;;13.48;;
37877;SDS011;23715;53.652;8.516;2022-08-21T22:49:43;14.75;;;13.38;;
37877;SDS011;23715;53.652;8.516;2022-08-21T22:54:45;16.20;;;14.33;;
37877;SDS011;23715;53.652;8.516;2022-08-21T23:00:34;15.40;;;13.77;;
37877;SDS011;23715;53.652;8.516;2022-08-21T23:05:15;17.97;;;16.07;;
37877;SDS011;23715;53.652;8.516;2022-08-21T23:10:24;19.77;;;16.17;;
37877;SDS011;23715;53.652;8.516;2022-08-21T23:15:41;17.67;;;16.12;;
37877;SDS011;23715;53.652;8.516;2022-08-21T23:20:54;17.73;;;15.28;;
37877;SDS011;23715;53.652;8.516;2022-08-21T23:26:20;18.12;;;16.37;;
37877;SDS011;23715;53.652;8.516;2022-08-21T23:31:38;20.10;;;16.77;;
37877;SDS011;23715;53.652;8.516;2022-08-21T23:48:16;22.58;;;18.87;;
